sensor_id;sensor_type;location;lat;lon;timestamp;pressure;altitude;pressure_sealevel;temperature;humidity
32298;BME280;18782;48.984;8.548;2023-05-23T00:02:09;99781.44;;;17.59;96.66
32298;BME280;18782;48.984;8.548;2023-05-23T00:04:39;99774.56;;;17.55;96.72
32298;BME280;18782;48.984;8.548;2023-05-23T00:07:08;99772.81;;;17.54;96.80
32298;BME280;18782;48.984;8.548;2023-05-23T00:09:35;99773.72;;;17.51;96.57
32298;BME280;18782;48.984;8.548;2023-05-23T00:12:05;99765.06;;;17.49;96.97
32298;BME280;18782;48.984;8.548;2023-05-23T00:14:33;99768.50;;;17.48;96.69
32298;BME280;18782;48.984;8.548;2023-05-23T00:17:00;99775.47;;;17.47;97.29
32298;BME280;18782;48.984;8.548;2023-05-23T00:19:28;99785.03;;;17.42;97.83
32298;BME280;18782;48.984;8.548;2023-05-23T00:21:56;99774.63;;;17.44;97.86
32298;BME280;18782;48.984;8.548;2023-05-23T00:24:24;99783.28;;;17.46;98.45
32298;BME280;18782;48.984;8.548;2023-05-23T00:26:52;99781.56;;;17.43;98.25
32298;BME280;18782;48.984;8.548;2023-05-23T00:29:21;99786.78;;;17.40;98.19
32298;BME280;18782;48.984;8.548;2023-05-23T00:31:49;99784.19;;;17.37;98.66
32298;BME280;18782;48.984;8.548;2023-05-23T00:34:17;99791.13;;;17.40;98.04
32298;BME280;18782;48.984;8.548;2023-05-23T00:36:45;99790.28;;;17.39;98.66
32298;BME280;18782;48.984;8.548;2023-05-23T00:39:16;99788.56;;;17.32;99.21
32298;BME280;18782;48.984;8.548;2023-05-23T00:41:47;99788.56;;;17.31;99.36
32298;BME280;18782;48.984;8.548;2023-05-23T00:44:18;99786.88;;;17.28;99.25
32298;BME280;18782;48.984;8.548;2023-05-23T00:46:51;99787.72;;;17.29;99.61
32298;BME280;18782;48.984;8.548;2023-05-23T00:49:20;99784.28;;;17.25;98.73
32298;BME280;18782;48.984;8.548;2023-05-23T00:51:48;99779.91;;;17.30;99.15
32298;BME280;18782;48.984;8.548;2023-05-23T00:54:17;99785.09;;;17.33;99.04
32298;BME280;18782;48.984;8.548;2023-05-23T00:56:46;99785.97;;;17.34;98.71
32298;BME280;18782;48.984;8.548;2023-05-23T00:59:15;99786.00;;;17.29;98.54
32298;BME280;18782;48.984;8.548;2023-05-23T01:01:43;99792.03;;;17.34;98.80
32298;BME280;18782;48.984;8.548;2023-05-23T01:04:13;99798.97;;;17.35;98.75
32298;BME280;18782;48.984;8.548;2023-05-23T01:06:42;99797.25;;;17.34;98.94
32298;BME280;18782;48.984;8.548;2023-05-23T01:09:13;99799.81;;;17.36;98.65
32298;BME280;18782;48.984;8.548;2023-05-23T01:11:52;99799.81;;;17.39;98.61
32298;BME280;18782;48.984;8.548;2023-05-23T01:14:39;99798.97;;;17.35;98.78
32298;BME280;18782;48.984;8.548;2023-05-23T01:17:14;99795.44;;;17.42;98.98
32298;BME280;18782;48.984;8.548;2023-05-23T01:19:54;99798.03;;;17.42;99.04
32298;BME280;18782;48.984;8.548;2023-05-23T01:22:35;99792.84;;;17.42;99.36
32298;BME280;18782;48.984;8.548;2023-05-23T01:25:13;99787.63;;;17.42;99.18
32298;BME280;18782;48.984;8.548;2023-05-23T01:27:52;99792.84;;;17.42;99.35
32298;BME280;18782;48.984;8.548;2023-05-23T01:30:20;99798.91;;;17.44;99.55
32298;BME280;18782;48.984;8.548;2023-05-23T01:32:50;99800.63;;;17.45;99.78
32298;BME280;18782;48.984;8.548;2023-05-23T01:35:23;99791.94;;;17.48;99.59
32298;BME280;18782;48.984;8.548;2023-05-23T01:37:53;99804.06;;;17.51;99.30
32298;BME280;18782;48.984;8.548;2023-05-23T01:40:23;99799.75;;;17.46;99.34
32298;BME280;18782;48.984;8.548;2023-05-23T01:42:54;99801.47;;;17.52;98.78
32298;BME280;18782;48.984;8.548;2023-05-23T01:45:25;99798.84;;;17.54;99.04
32298;BME280;18782;48.984;8.548;2023-05-23T01:47:53;99801.44;;;17.57;98.77
32298;BME280;18782;48.984;8.548;2023-05-23T01:50:23;99810.13;;;17.54;98.86
32298;BME280;18782;48.984;8.548;2023-05-23T01:52:52;99809.25;;;17.57;99.18
32298;BME280;18782;48.984;8.548;2023-05-23T01:55:21;99809.19;;;17.63;98.81
32298;BME280;18782;48.984;8.548;2023-05-23T01:57:50;99809.19;;;17.63;98.83
32298;BME280;18782;48.984;8.548;2023-05-23T02:00:20;99805.72;;;17.65;98.77
32298;BME280;18782;48.984;8.548;2023-05-23T02:02:47;99808.31;;;17.70;98.47
32298;BME280;18782;48.984;8.548;2023-05-23T02:05:16;99810.91;;;17.73;98.46
32298;BME280;18782;48.984;8.548;2023-05-23T02:07:44;99816.09;;;17.73;98.66
32298;BME280;18782;48.984;8.548;2023-05-23T02:10:12;99821.25;;;17.79;98.19
32298;BME280;18782;48.984;8.548;2023-05-23T02:12:39;99822.97;;;17.83;98.43
32298;BME280;18782;48.984;8.548;2023-05-23T02:15:07;99817.75;;;17.86;98.14
32298;BME280;18782;48.984;8.548;2023-05-23T02:17:37;99816.88;;;17.84;97.86
32298;BME280;18782;48.984;8.548;2023-05-23T02:20:07;99820.44;;;17.77;98.50
32298;BME280;18782;48.984;8.548;2023-05-23T02:22:35;99810.91;;;17.70;98.99
32298;BME280;18782;48.984;8.548;2023-05-23T02:25:04;99817.84;;;17.68;99.38
32298;BME280;18782;48.984;8.548;2023-05-23T02:27:31;99816.09;;;17.74;99.00
32298;BME280;18782;48.984;8.548;2023-05-23T02:29:59;99812.63;;;17.74;98.94
32298;BME280;18782;48.984;8.548;2023-05-23T02:32:27;99816.09;;;17.73;99.36
32298;BME280;18782;48.984;8.548;2023-05-23T02:34:57;99817.81;;;17.74;99.49
32298;BME280;18782;48.984;8.548;2023-05-23T02:37:25;99816.13;;;17.70;99.60
32298;BME280;18782;48.984;8.548;2023-05-23T02:39:52;99830.84;;;17.76;99.44
32298;BME280;18782;48.984;8.548;2023-05-23T02:42:20;99828.25;;;17.76;99.35
32298;BME280;18782;48.984;8.548;2023-05-23T02:44:48;99826.47;;;17.79;99.34
32298;BME280;18782;48.984;8.548;2023-05-23T02:47:17;99819.53;;;17.78;98.90
32298;BME280;18782;48.984;8.548;2023-05-23T02:49:44;99830.84;;;17.76;98.88
32298;BME280;18782;48.984;8.548;2023-05-23T02:52:15;99824.75;;;17.78;99.43
32298;BME280;18782;48.984;8.548;2023-05-23T02:54:43;99833.44;;;17.77;99.76
32298;BME280;18782;48.984;8.548;2023-05-23T02:57:11;99833.44;;;17.77;99.82
32298;BME280;18782;48.984;8.548;2023-05-23T02:59:40;99836.88;;;17.79;99.34
32298;BME280;18782;48.984;8.548;2023-05-23T03:02:08;99836.06;;;17.76;99.86
32298;BME280;18782;48.984;8.548;2023-05-23T03:04:35;99838.66;;;17.77;99.29
32298;BME280;18782;48.984;8.548;2023-05-23T03:07:04;99838.66;;;17.77;99.61
32298;BME280;18782;48.984;8.548;2023-05-23T03:09:43;99829.97;;;17.69;99.68
32298;BME280;18782;48.984;8.548;2023-05-23T03:12:11;99833.47;;;17.68;99.88
32298;BME280;18782;48.984;8.548;2023-05-23T03:14:39;99827.38;;;17.70;99.77
32298;BME280;18782;48.984;8.548;2023-05-23T03:17:06;99826.53;;;17.73;100.00
32298;BME280;18782;48.984;8.548;2023-05-23T03:19:34;99830.84;;;17.74;100.00
32298;BME280;18782;48.984;8.548;2023-05-23T03:22:02;99832.59;;;17.75;100.00
32298;BME280;18782;48.984;8.548;2023-05-23T03:24:30;99834.31;;;17.74;100.00
32298;BME280;18782;48.984;8.548;2023-05-23T03:26:59;99837.75;;;17.80;100.00
32298;BME280;18782;48.984;8.548;2023-05-23T03:29:28;99840.38;;;17.81;100.00
32298;BME280;18782;48.984;8.548;2023-05-23T03:31:56;99837.75;;;17.83;100.00
32298;BME280;18782;48.984;8.548;2023-05-23T03:34:23;99848.16;;;17.80;100.00
32298;BME280;18782;48.984;8.548;2023-05-23T03:36:51;99843.84;;;17.80;100.00
32298;BME280;18782;48.984;8.548;2023-05-23T03:39:19;99845.56;;;17.81;100.00
32298;BME280;18782;48.984;8.548;2023-05-23T03:41:47;99858.56;;;17.83;100.00
32298;BME280;18782;48.984;8.548;2023-05-23T03:44:16;99855.94;;;17.84;100.00
32298;BME280;18782;48.984;8.548;2023-05-23T03:46:44;99862.88;;;17.85;100.00
32298;BME280;18782;48.984;8.548;2023-05-23T03:49:13;99860.31;;;17.82;100.00
32298;BME280;18782;48.984;8.548;2023-05-23T03:51:41;99859.44;;;17.83;100.00
32298;BME280;18782;48.984;8.548;2023-05-23T03:54:12;99858.56;;;17.86;100.00
32298;BME280;18782;48.984;8.548;2023-05-23T03:56:40;99858.50;;;17.90;95.65
32298;BME280;18782;48.984;8.548;2023-05-23T03:59:08;99853.28;;;17.93;96.41
32298;BME280;18782;48.984;8.548;2023-05-23T04:01:37;99856.72;;;17.98;96.30
32298;BME280;18782;48.984;8.548;2023-05-23T04:04:04;99868.03;;;17.97;95.74
32298;BME280;18782;48.984;8.548;2023-05-23T04:06:35;99861.91;;;18.00;95.21
32298;BME280;18782;48.984;8.548;2023-05-23T04:09:03;99865.38;;;18.04;94.74
32298;BME280;18782;48.984;8.548;2023-05-23T04:11:35;99867.94;;;18.10;93.82
32298;BME280;18782;48.984;8.548;2023-05-23T04:14:03;99874.00;;;18.12;94.04
32298;BME280;18782;48.984;8.548;2023-05-23T04:16:30;99869.63;;;18.14;93.50
32298;BME280;18782;48.984;8.548;2023-05-23T04:19:00;99877.47;;;18.12;91.63
32298;BME280;18782;48.984;8.548;2023-05-23T04:21:31;99877.38;;;18.21;91.69
32298;BME280;18782;48.984;8.548;2023-05-23T04:24:05;99880.88;;;18.19;91.85
32298;BME280;18782;48.984;8.548;2023-05-23T04:26:33;99876.53;;;18.21;91.54
32298;BME280;18782;48.984;8.548;2023-05-23T04:29:03;99883.50;;;18.22;91.44
32298;BME280;18782;48.984;8.548;2023-05-23T04:31:32;99887.78;;;18.28;90.67
32298;BME280;18782;48.984;8.548;2023-05-23T04:34:01;99886.06;;;18.23;89.20
32298;BME280;18782;48.984;8.548;2023-05-23T04:36:34;99882.59;;;18.21;90.09
32298;BME280;18782;48.984;8.548;2023-05-23T04:39:03;99887.81;;;18.21;89.57
32298;BME280;18782;48.984;8.548;2023-05-23T04:41:34;99895.69;;;18.14;88.79
32298;BME280;18782;48.984;8.548;2023-05-23T04:44:16;99891.34;;;18.17;89.00
32298;BME280;18782;48.984;8.548;2023-05-23T04:47:06;99906.06;;;18.23;88.64
32298;BME280;18782;48.984;8.548;2023-05-23T04:49:58;99905.16;;;18.24;88.35
32298;BME280;18782;48.984;8.548;2023-05-23T04:52:29;99906.09;;;18.17;88.21
32298;BME280;18782;48.984;8.548;2023-05-23T04:54:59;99913.03;;;18.18;88.50
32298;BME280;18782;48.984;8.548;2023-05-23T04:57:27;99918.25;;;18.18;88.39
32298;BME280;18782;48.984;8.548;2023-05-23T04:59:55;99916.47;;;18.23;87.89
32298;BME280;18782;48.984;8.548;2023-05-23T05:02:24;99913.81;;;18.26;87.64
32298;BME280;18782;48.984;8.548;2023-05-23T05:04:52;99911.22;;;18.29;87.63
32298;BME280;18782;48.984;8.548;2023-05-23T05:07:21;99919.00;;;18.34;87.00
32298;BME280;18782;48.984;8.548;2023-05-23T05:09:49;99912.94;;;18.33;87.32
32298;BME280;18782;48.984;8.548;2023-05-23T05:12:17;99918.09;;;18.39;86.48
32298;BME280;18782;48.984;8.548;2023-05-23T05:14:44;99921.53;;;18.43;85.49
32298;BME280;18782;48.984;8.548;2023-05-23T05:17:12;99923.25;;;18.45;85.21
32298;BME280;18782;48.984;8.548;2023-05-23T05:19:58;99928.44;;;18.48;84.64
32298;BME280;18782;48.984;8.548;2023-05-23T05:22:28;99926.69;;;18.47;84.00
32298;BME280;18782;48.984;8.548;2023-05-23T05:24:55;99925.81;;;18.50;83.69
32298;BME280;18782;48.984;8.548;2023-05-23T05:27:23;99925.84;;;18.45;83.85
32298;BME280;18782;48.984;8.548;2023-05-23T05:29:54;99931.94;;;18.44;84.08
32298;BME280;18782;48.984;8.548;2023-05-23T05:32:24;99934.59;;;18.38;83.67
32298;BME280;18782;48.984;8.548;2023-05-23T05:34:51;99929.38;;;18.40;83.90
32298;BME280;18782;48.984;8.548;2023-05-23T05:37:19;99928.47;;;18.42;83.35
32298;BME280;18782;48.984;8.548;2023-05-23T05:39:49;99938.88;;;18.42;83.22
32298;BME280;18782;48.984;8.548;2023-05-23T05:42:17;99944.09;;;18.48;83.62
32298;BME280;18782;48.984;8.548;2023-05-23T05:44:44;99943.19;;;18.49;82.46
32298;BME280;18782;48.984;8.548;2023-05-23T05:47:12;99939.63;;;18.58;81.69
32298;BME280;18782;48.984;8.548;2023-05-23T05:49:40;99950.97;;;18.56;81.47
32298;BME280;18782;48.984;8.548;2023-05-23T05:52:08;99943.22;;;18.48;81.40
32298;BME280;18782;48.984;8.548;2023-05-23T05:54:36;99951.88;;;18.47;80.93
32298;BME280;18782;48.984;8.548;2023-05-23T05:57:05;99947.56;;;18.46;81.31
32298;BME280;18782;48.984;8.548;2023-05-23T05:59:33;99957.06;;;18.51;80.24
32298;BME280;18782;48.984;8.548;2023-05-23T06:02:00;99956.25;;;18.46;80.60
32298;BME280;18782;48.984;8.548;2023-05-23T06:04:29;99958.78;;;18.52;80.96
32298;BME280;18782;48.984;8.548;2023-05-23T06:06:57;99957.91;;;18.57;81.14
32298;BME280;18782;48.984;8.548;2023-05-23T06:09:25;99959.66;;;18.53;80.05
32298;BME280;18782;48.984;8.548;2023-05-23T06:11:53;99963.22;;;18.44;79.59
32298;BME280;18782;48.984;8.548;2023-05-23T06:14:22;99975.38;;;18.48;79.88
32298;BME280;18782;48.984;8.548;2023-05-23T06:16:50;99965.75;;;18.52;79.17
32298;BME280;18782;48.984;8.548;2023-05-23T06:19:18;99973.63;;;18.49;79.87
32298;BME280;18782;48.984;8.548;2023-05-23T06:21:46;99978.75;;;18.60;79.86
32298;BME280;18782;48.984;8.548;2023-05-23T06:24:14;99975.22;;;18.62;79.79
32298;BME280;18782;48.984;8.548;2023-05-23T06:26:42;99976.97;;;18.68;78.53
32298;BME280;18782;48.984;8.548;2023-05-23T06:29:09;99988.22;;;18.74;78.23
32298;BME280;18782;48.984;8.548;2023-05-23T06:31:38;99988.16;;;18.79;77.92
32298;BME280;18782;48.984;8.548;2023-05-23T06:34:06;99991.59;;;18.86;75.08
32298;BME280;18782;48.984;8.548;2023-05-23T06:36:34;99991.69;;;18.75;75.37
32298;BME280;18782;48.984;8.548;2023-05-23T06:39:01;100007.38;;;18.70;76.67
32298;BME280;18782;48.984;8.548;2023-05-23T06:41:29;100006.56;;;18.58;76.13
32298;BME280;18782;48.984;8.548;2023-05-23T06:43:57;100011.84;;;18.48;77.56
32298;BME280;18782;48.984;8.548;2023-05-23T06:46:28;100006.63;;;18.47;77.02
32298;BME280;18782;48.984;8.548;2023-05-23T06:48:58;100013.53;;;18.52;76.93
32298;BME280;18782;48.984;8.548;2023-05-23T06:51:41;100018.78;;;18.49;75.30
32298;BME280;18782;48.984;8.548;2023-05-23T06:54:10;100024.06;;;18.39;75.00
32298;BME280;18782;48.984;8.548;2023-05-23T06:56:37;100037.09;;;18.40;74.37
32298;BME280;18782;48.984;8.548;2023-05-23T06:59:05;100037.97;;;18.39;75.34
32298;BME280;18782;48.984;8.548;2023-05-23T07:01:34;100035.28;;;18.47;74.12
32298;BME280;18782;48.984;8.548;2023-05-23T07:04:04;100037.09;;;18.40;75.00
32298;BME280;18782;48.984;8.548;2023-05-23T07:06:33;100038.75;;;18.52;75.11
32298;BME280;18782;48.984;8.548;2023-05-23T07:09:04;100032.59;;;18.62;74.58
32298;BME280;18782;48.984;8.548;2023-05-23T07:11:31;100050.06;;;18.49;73.79
32298;BME280;18782;48.984;8.548;2023-05-23T07:14:01;100053.47;;;18.58;73.84
32298;BME280;18782;48.984;8.548;2023-05-23T07:16:34;100053.47;;;18.61;71.92
32298;BME280;18782;48.984;8.548;2023-05-23T07:19:06;100055.97;;;18.81;72.25
32298;BME280;18782;48.984;8.548;2023-05-23T07:21:41;100051.63;;;18.78;71.18
32298;BME280;18782;48.984;8.548;2023-05-23T07:24:09;100051.59;;;18.84;72.33
32298;BME280;18782;48.984;8.548;2023-05-23T07:26:37;100063.72;;;18.88;71.56
32298;BME280;18782;48.984;8.548;2023-05-23T07:29:04;100059.38;;;18.92;70.90
32298;BME280;18782;48.984;8.548;2023-05-23T07:31:33;100061.94;;;18.95;70.86
32298;BME280;18782;48.984;8.548;2023-05-23T07:34:01;100058.50;;;18.91;70.64
32298;BME280;18782;48.984;8.548;2023-05-23T07:36:40;100061.13;;;18.90;71.17
32298;BME280;18782;48.984;8.548;2023-05-23T07:39:10;100067.28;;;18.81;70.24
32298;BME280;18782;48.984;8.548;2023-05-23T07:41:38;100062.91;;;18.83;70.71
32298;BME280;18782;48.984;8.548;2023-05-23T07:44:06;100064.63;;;18.87;71.16
32298;BME280;18782;48.984;8.548;2023-05-23T07:46:35;100066.38;;;18.84;70.43
32298;BME280;18782;48.984;8.548;2023-05-23T07:49:02;100062.97;;;18.75;71.59
32298;BME280;18782;48.984;8.548;2023-05-23T07:51:30;100071.63;;;18.77;71.71
32298;BME280;18782;48.984;8.548;2023-05-23T07:53:59;100065.53;;;18.80;71.12
32298;BME280;18782;48.984;8.548;2023-05-23T07:56:27;100062.09;;;18.75;72.07
32298;BME280;18782;48.984;8.548;2023-05-23T07:58:56;100070.75;;;18.82;70.17
32298;BME280;18782;48.984;8.548;2023-05-23T08:01:24;100068.25;;;18.60;70.58
32298;BME280;18782;48.984;8.548;2023-05-23T08:04:00;100066.50;;;18.61;70.74
32298;BME280;18782;48.984;8.548;2023-05-23T08:06:33;100063.03;;;18.60;69.93
32298;BME280;18782;48.984;8.548;2023-05-23T08:09:06;100067.44;;;18.54;69.00
32298;BME280;18782;48.984;8.548;2023-05-23T08:11:40;100070.03;;;18.52;69.00
32298;BME280;18782;48.984;8.548;2023-05-23T08:14:09;100076.09;;;18.56;69.08
32298;BME280;18782;48.984;8.548;2023-05-23T08:16:37;100073.44;;;18.71;69.45
32298;BME280;18782;48.984;8.548;2023-05-23T08:19:10;100073.31;;;18.86;68.58
32298;BME280;18782;48.984;8.548;2023-05-23T08:21:38;100080.28;;;18.86;68.16
32298;BME280;18782;48.984;8.548;2023-05-23T08:24:07;100082.97;;;18.75;67.81
32298;BME280;18782;48.984;8.548;2023-05-23T08:26:35;100082.81;;;18.96;67.28
32298;BME280;18782;48.984;8.548;2023-05-23T08:29:05;100081.81;;;19.11;67.11
32298;BME280;18782;48.984;8.548;2023-05-23T08:31:35;100080.09;;;19.09;65.99
32298;BME280;18782;48.984;8.548;2023-05-23T08:34:05;100089.53;;;19.25;66.25
32298;BME280;18782;48.984;8.548;2023-05-23T08:36:34;100078.16;;;19.34;66.38
32298;BME280;18782;48.984;8.548;2023-05-23T08:39:06;100088.47;;;19.44;65.67
32298;BME280;18782;48.984;8.548;2023-05-23T08:41:41;100086.59;;;19.57;66.62
32298;BME280;18782;48.984;8.548;2023-05-23T08:44:11;100097.91;;;19.64;65.29
32298;BME280;18782;48.984;8.548;2023-05-23T08:46:46;100093.44;;;19.75;65.66
32298;BME280;18782;48.984;8.548;2023-05-23T08:49:26;100091.63;;;19.80;65.97
32298;BME280;18782;48.984;8.548;2023-05-23T08:51:58;100095.00;;;19.91;65.29
32298;BME280;18782;48.984;8.548;2023-05-23T08:54:30;100095.13;;;19.77;65.09
32298;BME280;18782;48.984;8.548;2023-05-23T08:56:59;100099.41;;;19.86;64.10
32298;BME280;18782;48.984;8.548;2023-05-23T08:59:31;100101.28;;;19.75;64.04
32298;BME280;18782;48.984;8.548;2023-05-23T09:02:01;100097.69;;;19.82;63.68
32298;BME280;18782;48.984;8.548;2023-05-23T09:04:30;100106.41;;;19.84;64.62
32298;BME280;18782;48.984;8.548;2023-05-23T09:07:05;100102.78;;;19.96;63.94
32298;BME280;18782;48.984;8.548;2023-05-23T09:09:35;100106.34;;;19.90;64.92
32298;BME280;18782;48.984;8.548;2023-05-23T09:12:05;100114.97;;;19.95;63.57
32298;BME280;18782;48.984;8.548;2023-05-23T09:14:34;100120.31;;;19.83;63.21
32298;BME280;18782;48.984;8.548;2023-05-23T09:21:19;100115.91;;;19.91;63.20
32298;BME280;18782;48.984;8.548;2023-05-23T09:23:54;100110.56;;;19.99;63.50
32298;BME280;18782;48.984;8.548;2023-05-23T09:26:25;100120.16;;;19.98;64.03
32298;BME280;18782;48.984;8.548;2023-05-23T09:28:56;100120.03;;;20.09;63.95
32298;BME280;18782;48.984;8.548;2023-05-23T09:31:26;100120.72;;;20.26;62.89
32298;BME280;18782;48.984;8.548;2023-05-23T09:33:57;100123.41;;;20.19;61.11
32298;BME280;18782;48.984;8.548;2023-05-23T09:36:27;100118.03;;;20.29;62.25
32298;BME280;18782;48.984;8.548;2023-05-23T09:38:55;100116.97;;;20.46;62.58
32298;BME280;18782;48.984;8.548;2023-05-23T09:41:23;100114.44;;;20.41;61.57
32298;BME280;18782;48.984;8.548;2023-05-23T09:43:53;100105.56;;;20.54;61.24
32298;BME280;18782;48.984;8.548;2023-05-23T09:46:21;100114.88;;;20.74;61.01
32298;BME280;18782;48.984;8.548;2023-05-23T09:48:50;100114.69;;;20.86;61.30
32298;BME280;18782;48.984;8.548;2023-05-23T09:51:20;100118.75;;;21.05;60.69
32298;BME280;18782;48.984;8.548;2023-05-23T09:53:49;100115.00;;;21.22;59.38
32298;BME280;18782;48.984;8.548;2023-05-23T09:56:18;100109.56;;;21.37;59.65
32298;BME280;18782;48.984;8.548;2023-05-23T09:58:47;100107.66;;;21.47;59.00
32298;BME280;18782;48.984;8.548;2023-05-23T10:01:17;100113.50;;;21.59;58.36
32298;BME280;18782;48.984;8.548;2023-05-23T10:03:48;100114.97;;;21.25;56.80
32298;BME280;18782;48.984;8.548;2023-05-23T10:06:21;100118.03;;;20.96;57.18
32298;BME280;18782;48.984;8.548;2023-05-23T10:08:54;100121.00;;;20.73;58.56
32298;BME280;18782;48.984;8.548;2023-05-23T10:14:43;100111.41;;;20.72;59.03
32298;BME280;18782;48.984;8.548;2023-05-23T10:17:17;100115.81;;;20.70;58.39
32298;BME280;18782;48.984;8.548;2023-05-23T10:19:52;100117.84;;;20.46;58.49
32298;BME280;18782;48.984;8.548;2023-05-23T10:22:20;100120.28;;;20.60;58.11
32298;BME280;18782;48.984;8.548;2023-05-23T10:24:48;100115.09;;;20.58;58.37
32298;BME280;18782;48.984;8.548;2023-05-23T10:27:17;100121.84;;;20.75;57.46
32298;BME280;18782;48.984;8.548;2023-05-23T10:29:45;100117.38;;;20.83;56.89
32298;BME280;18782;48.984;8.548;2023-05-23T10:32:15;100122.19;;;21.10;56.36
32298;BME280;18782;48.984;8.548;2023-05-23T10:34:50;100117.22;;;20.92;54.31
32298;BME280;18782;48.984;8.548;2023-05-23T10:37:26;100122.28;;;21.04;55.38
32298;BME280;18782;48.984;8.548;2023-05-23T10:40:00;100114.34;;;21.07;54.98
32298;BME280;18782;48.984;8.548;2023-05-23T10:42:37;100123.72;;;20.65;56.03
32298;BME280;18782;48.984;8.548;2023-05-23T10:45:16;100114.59;;;20.92;57.51
32298;BME280;18782;48.984;8.548;2023-05-23T10:47:46;100116.88;;;21.14;56.45
32298;BME280;18782;48.984;8.548;2023-05-23T10:50:22;100118.56;;;21.18;57.06
32298;BME280;18782;48.984;8.548;2023-05-23T10:52:58;100118.34;;;21.33;55.77
32298;BME280;18782;48.984;8.548;2023-05-23T10:55:30;100114.91;;;21.31;55.69
32298;BME280;18782;48.984;8.548;2023-05-23T10:58:13;100118.09;;;21.48;56.41
32298;BME280;18782;48.984;8.548;2023-05-23T11:00:49;100113.59;;;21.56;53.98
32298;BME280;18782;48.984;8.548;2023-05-23T11:03:29;100109.44;;;21.43;54.21
32298;BME280;18782;48.984;8.548;2023-05-23T11:05:59;100116.41;;;21.44;55.41
32298;BME280;18782;48.984;8.548;2023-05-23T11:08:35;100114.53;;;21.52;56.04
32298;BME280;18782;48.984;8.548;2023-05-23T11:11:12;100120.34;;;21.16;54.92
32298;BME280;18782;48.984;8.548;2023-05-23T11:13:55;100110.06;;;21.03;56.26
32298;BME280;18782;48.984;8.548;2023-05-23T11:16:27;100119.50;;;21.14;57.95
32298;BME280;18782;48.984;8.548;2023-05-23T11:19:22;100113.28;;;21.21;55.38
32298;BME280;18782;48.984;8.548;2023-05-23T11:21:53;100111.28;;;21.38;55.45
32298;BME280;18782;48.984;8.548;2023-05-23T11:24:21;100112.72;;;21.54;55.32
32298;BME280;18782;48.984;8.548;2023-05-23T11:26:53;100113.97;;;21.83;54.24
32298;BME280;18782;48.984;8.548;2023-05-23T11:29:26;100122.41;;;21.97;54.28
32298;BME280;18782;48.984;8.548;2023-05-23T11:31:54;100115.19;;;22.11;52.65
32298;BME280;18782;48.984;8.548;2023-05-23T11:34:24;100107.50;;;21.54;54.63
32298;BME280;18782;48.984;8.548;2023-05-23T11:36:53;100108.31;;;22.04;54.22
32298;BME280;18782;48.984;8.548;2023-05-23T11:39:21;100110.25;;;22.39;54.14
32298;BME280;18782;48.984;8.548;2023-05-23T11:41:59;100103.28;;;22.76;53.58
32298;BME280;18782;48.984;8.548;2023-05-23T11:44:27;100103.88;;;23.26;52.50
32298;BME280;18782;48.984;8.548;2023-05-23T11:47:01;100105.63;;;23.61;49.61
32298;BME280;18782;48.984;8.548;2023-05-23T11:49:34;100099.50;;;23.60;48.87
32298;BME280;18782;48.984;8.548;2023-05-23T11:52:03;100097.00;;;23.56;50.00
32298;BME280;18782;48.984;8.548;2023-05-23T11:54:32;100098.78;;;23.54;49.13
32298;BME280;18782;48.984;8.548;2023-05-23T11:57:00;100098.41;;;23.35;50.26
32298;BME280;18782;48.984;8.548;2023-05-23T11:59:28;100099.59;;;23.23;51.10
32298;BME280;18782;48.984;8.548;2023-05-23T12:01:56;100091.94;;;23.12;50.69
32298;BME280;18782;48.984;8.548;2023-05-23T12:04:24;100091.69;;;22.86;50.50
32298;BME280;18782;48.984;8.548;2023-05-23T12:06:53;100094.88;;;23.00;51.07
32298;BME280;18782;48.984;8.548;2023-05-23T12:09:21;100091.97;;;22.74;51.17
32298;BME280;18782;48.984;8.548;2023-05-23T12:11:49;100087.50;;;22.79;51.18
32298;BME280;18782;48.984;8.548;2023-05-23T12:14:17;100087.06;;;22.58;52.96
32298;BME280;18782;48.984;8.548;2023-05-23T12:16:45;100097.47;;;22.23;53.52
32298;BME280;18782;48.984;8.548;2023-05-23T12:19:15;100093.88;;;21.83;53.83
32298;BME280;18782;48.984;8.548;2023-05-23T12:21:44;100098.41;;;21.74;54.67
32298;BME280;18782;48.984;8.548;2023-05-23T12:24:18;100098.69;;;21.58;54.86
32298;BME280;18782;48.984;8.548;2023-05-23T12:26:49;100094.78;;;21.33;55.57
32298;BME280;18782;48.984;8.548;2023-05-23T12:29:20;100091.31;;;21.29;56.42
32298;BME280;18782;48.984;8.548;2023-05-23T12:31:49;100093.84;;;21.37;56.36
32298;BME280;18782;48.984;8.548;2023-05-23T12:34:21;100093.69;;;21.46;55.73
32298;BME280;18782;48.984;8.548;2023-05-23T12:36:48;100091.66;;;21.60;55.85
32298;BME280;18782;48.984;8.548;2023-05-23T12:39:29;100089.44;;;21.41;55.20
32298;BME280;18782;48.984;8.548;2023-05-23T12:42:06;100093.72;;;21.43;55.89
32298;BME280;18782;48.984;8.548;2023-05-23T12:44:35;100090.00;;;21.56;56.71
32298;BME280;18782;48.984;8.548;2023-05-23T12:47:03;100089.81;;;21.66;54.86
32298;BME280;18782;48.984;8.548;2023-05-23T12:49:31;100087.97;;;21.71;54.79
32298;BME280;18782;48.984;8.548;2023-05-23T12:51:58;100085.41;;;21.69;54.73
32298;BME280;18782;48.984;8.548;2023-05-23T12:54:26;100087.78;;;21.81;55.45
32298;BME280;18782;48.984;8.548;2023-05-23T12:56:55;100084.34;;;21.79;55.12
32298;BME280;18782;48.984;8.548;2023-05-23T12:59:22;100084.00;;;21.96;55.08
32298;BME280;18782;48.984;8.548;2023-05-23T13:01:50;100088.97;;;22.11;52.22
32298;BME280;18782;48.984;8.548;2023-05-23T13:04:18;100077.63;;;22.11;52.53
32298;BME280;18782;48.984;8.548;2023-05-23T13:06:46;100077.94;;;22.37;51.49
32298;BME280;18782;48.984;8.548;2023-05-23T13:09:13;100072.44;;;22.48;51.45
32298;BME280;18782;48.984;8.548;2023-05-23T13:11:41;100088.50;;;22.34;52.72
32298;BME280;18782;48.984;8.548;2023-05-23T13:14:11;100082.25;;;22.79;52.28
32298;BME280;18782;48.984;8.548;2023-05-23T13:16:39;100079.88;;;23.05;50.23
32298;BME280;18782;48.984;8.548;2023-05-23T13:19:06;100076.66;;;23.28;52.28